Port Murray, NJ

12:48 PM EDT on May 27, 2015 (GMT -0400)
Andover | | Change Station
CLOSE
Current Station
Airport
Location: Andover,
Elevation: 581 ft
Nearby Weather Stations

Elev 581 ft 41.01 °N, 74.74 °W | Updated 54 minutes ago

Overcast
Overcast
78 °F
Feels Like 78 °F
N
6
Wind Variable Wind from Variable
Gusts 14 mph

Today
High -- | Low -- °F
--% Chance of Precip.
Yesterday
High -- | Low -- °F
Precip. -- in
5:33 AM 8:20 PM
Waxing Gibbous, 68% visible
Pressure 30.14 in
Visibility -9999.0 miles
Clouds
Dew Point 68 °F
Humidity 71%
Rainfall 0.00 in
Snow Depth Not available.
UV Not available.
Pollen 4.90 out of 12
Air Quality Not available.
Flu Activity Sporadic
METAR K12N 271554Z AUTO VRB05KT 26/20 A3016 RMK AO1 SLP205 T02560200

More Conditions Fewer Conditions

Pressure 30.14 in
Visibility -9999.0 miles
Clouds
Dew Point 68 °F
Humidity 71%
Rainfall 0.00 in
Snow Depth Not available.
UV Not available.
Pollen 4.90 out of 12
Air Quality Not available.
Flu Activity Sporadic
METAR K12N 271554Z AUTO VRB05KT 26/20 A3016 RMK AO1 SLP205 T02560200

More Conditions Fewer Conditions

10-Day Weather Forecast

Almanac

Astronomy

May. 27, 2015 Rise Set
Actual Time
Civil Twilight
Nautical Twilight
Astronomical Twilight
Moon
Length of Visible Light
Length of Day
Tomorrow will be .
, % of the Moon is Illuminated

Today's Extremes

State Highs State Lows

Community

WunderPhotos

Upload Photos

1,824,720 photos uploaded!

WunderBlogs® & News

Nearby

Air Quality

  Air Quality AQ Index Pollutant
Not available.

Snow Depth

Station Depth Elevation

Earthquake Activity

City Distance Mag. Time & Date
Minimum magnitude displayed is 2.5.

Coastal Water Temperatures

Place Temperature

Stations

Nearby Weather Stations

Station Location Temp. Windchill Dew Point Humidity Wind Precip. Elev Updated Type